createdAt,value
2023-02-06T00:01:05.824Z,94257.84
2023-02-06T00:03:35.029Z,94228.44
2023-02-06T00:06:03.164Z,94249.44
2023-02-06T00:08:31.164Z,94223.25
2023-02-06T00:10:58.982Z,94209.84
2023-02-06T00:13:26.841Z,94247.66
2023-02-06T00:15:54.744Z,94259.47
2023-02-06T00:18:22.569Z,94246.84
2023-02-06T00:20:51.910Z,94225.19
2023-02-06T00:23:20.143Z,94195.78
2023-02-06T00:25:48.162Z,94150.38
2023-02-06T00:28:16.292Z,94130.69
2023-02-06T00:30:48.463Z,94125.50
2023-02-06T00:33:16.507Z,94104.69
2023-02-06T00:35:44.378Z,94104.69
2023-02-06T00:38:13.945Z,94104.69
2023-02-06T00:40:41.967Z,94093.06
2023-02-06T00:43:09.938Z,94113.09
2023-02-06T00:45:37.962Z,94116.47
2023-02-06T00:48:09.291Z,94201.59
2023-02-06T00:50:37.214Z,94248.47
2023-02-06T00:53:05.111Z,94238.16
2023-02-06T00:55:34.577Z,94194.34
2023-02-06T00:58:02.906Z,94198.38
2023-02-06T01:00:30.769Z,94189.34
2023-02-06T01:02:58.650Z,94166.69
2023-02-06T01:05:26.901Z,94158.28
2023-02-06T01:07:54.829Z,94163.16
2023-02-06T01:10:23.211Z,94135.53
2023-02-06T01:12:52.560Z,94095.31
2023-02-06T01:15:20.416Z,94088.69
2023-02-06T01:17:48.295Z,94093.06
2023-02-06T01:20:17.334Z,94061.09
2023-02-06T01:22:45.364Z,94043.47
2023-02-06T01:25:13.222Z,94119.88
2023-02-06T01:27:41.549Z,94165.09
2023-02-06T01:30:12.390Z,94143.44
2023-02-06T01:32:41.631Z,94135.53
2023-02-06T01:35:13.595Z,94110.31
2023-02-06T01:37:41.603Z,94064.63
2023-02-06T01:40:13.838Z,94024.25
2023-02-06T01:42:42.763Z,94005.91
2023-02-06T01:45:53.033Z,94022.66
2023-02-06T01:48:27.907Z,93981.06
2023-02-06T01:50:58.583Z,93932.47
2023-02-06T01:53:27.828Z,93887.16
2023-02-06T01:55:59.536Z,93820.41
2023-02-06T01:58:31.090Z,93769.31
2023-02-06T02:01:01.960Z,93725.16
2023-02-06T02:03:33.018Z,93669.91
2023-02-06T02:06:07.236Z,93643.16
2023-02-06T02:08:38.810Z,93608.41
2023-02-06T02:11:08.507Z,93581.31
2023-02-06T02:13:38.358Z,93593.25
2023-02-06T02:16:16.446Z,93566.53
2023-02-06T02:19:01.202Z,93564.59
2023-02-06T02:22:00.994Z,93603.22
2023-02-06T02:24:50.987Z,93611.59
2023-02-06T02:27:41.817Z,93580.53
2023-02-06T02:30:42.329Z,93570.09
2023-02-06T02:33:55.687Z,93538.84
2023-02-06T02:36:31.682Z,93584.88
2023-02-06T02:39:08.999Z,93617.56
2023-02-06T02:41:44.686Z,93615.63
2023-02-06T02:44:16.899Z,93655.91
2023-02-06T02:46:47.689Z,93679.25
2023-02-06T02:49:19.442Z,93685.66
2023-02-06T02:51:50.491Z,93679.06
2023-02-06T02:54:18.803Z,93656.72
2023-02-06T02:56:47.239Z,93630.75
2023-02-06T02:59:23.985Z,93598.06
2023-02-06T03:01:59.119Z,93624.78
2023-02-06T03:04:32.332Z,93639.97
2023-02-06T03:07:23.071Z,93619.97
2023-02-06T03:10:00.560Z,93607.06
2023-02-06T03:12:39.469Z,93604.03
2023-02-06T03:15:19.908Z,93564.31
2023-02-06T03:17:52.744Z,93539.84
2023-02-06T03:20:22.858Z,93579.72
2023-02-06T03:22:54.782Z,93561.38
2023-02-06T03:25:29.359Z,93553.00
2023-02-06T03:28:00.955Z,93557.38
2023-02-06T03:30:31.019Z,93519.50
2023-02-06T03:33:06.021Z,93494.75
2023-02-06T03:35:38.185Z,93489.59
2023-02-06T03:38:09.710Z,93528.88
2023-02-06T03:40:38.835Z,93582.31
2023-02-06T03:43:09.746Z,93609.66
2023-02-06T03:45:42.034Z,93583.91
2023-02-06T03:48:13.610Z,93599.03
2023-02-06T03:50:45.388Z,93584.09
2023-02-06T03:53:15.861Z,93586.50
2023-02-06T03:55:45.454Z,93589.88
2023-02-06T03:58:15.128Z,93553.00
2023-02-06T04:00:45.758Z,93533.06
2023-02-06T04:03:15.057Z,93533.38
2023-02-06T04:05:43.319Z,93520.47
2023-02-06T04:08:11.129Z,93539.22
2023-02-06T04:10:40.716Z,93512.28
2023-02-06T04:13:08.564Z,93483.00
2023-02-06T04:15:36.903Z,93452.13
2023-02-06T04:18:06.128Z,93500.56
2023-02-06T04:20:34.309Z,93520.66
2023-02-06T04:23:02.559Z,93501.53
2023-02-06T04:25:30.381Z,93462.28
2023-02-06T04:27:59.596Z,93448.13
2023-02-06T04:30:27.781Z,93418.22
2023-02-06T04:32:55.734Z,93482.22
2023-02-06T04:35:23.862Z,93491.22
2023-02-06T04:37:52.131Z,93534.66
2023-02-06T04:40:20.371Z,93581.69
2023-02-06T04:42:48.521Z,93616.41
2023-02-06T04:45:18.082Z,93602.44
2023-02-06T04:47:49.445Z,93604.66
2023-02-06T04:50:17.804Z,93584.53
2023-02-06T04:52:45.656Z,93571.34
2023-02-06T04:55:13.555Z,93548.19
2023-02-06T04:57:41.646Z,93523.88
2023-02-06T05:00:11.062Z,93533.06
2023-02-06T05:02:40.609Z,93490.56
2023-02-06T05:05:10.426Z,93465.66
2023-02-06T05:07:38.412Z,93406.28
2023-02-06T05:10:08.976Z,93340.75
2023-02-06T05:12:37.254Z,93288.00
2023-02-06T05:15:05.929Z,93239.84
2023-02-06T05:17:33.893Z,93259.75
2023-02-06T05:20:03.305Z,93297.16
2023-02-06T05:22:31.085Z,93348.13
2023-02-06T05:24:58.928Z,93357.91
2023-02-06T05:27:26.876Z,93378.81
2023-02-06T05:29:54.685Z,93382.34
2023-02-06T05:32:22.945Z,93296.34
2023-02-06T05:34:50.822Z,93230.50
2023-02-06T05:37:19.949Z,93290.75
2023-02-06T05:39:47.988Z,93306.31
2023-02-06T05:42:15.802Z,93316.31
2023-02-06T05:44:43.629Z,93340.75
2023-02-06T05:47:11.519Z,93333.00
2023-02-06T05:49:39.266Z,93332.38
2023-02-06T05:52:07.248Z,93279.66
2023-02-06T05:54:37.406Z,93176.56
2023-02-06T05:57:05.312Z,93088.28
2023-02-06T05:59:33.054Z,93125.50
2023-02-06T06:02:01.408Z,93160.28
2023-02-06T06:04:29.391Z,93209.63
2023-02-06T06:06:57.545Z,93233.09
2023-02-06T06:09:25.352Z,93272.88
2023-02-06T06:11:54.526Z,93288.63
2023-02-06T06:14:22.373Z,93311.16
2023-02-06T06:16:50.465Z,93327.22
2023-02-06T06:19:18.957Z,93309.38
2023-02-06T06:21:47.028Z,93320.94
2023-02-06T06:24:14.979Z,93338.78
2023-02-06T06:26:42.776Z,93316.94
2023-02-06T06:29:12.019Z,93338.16
2023-02-06T06:31:39.962Z,93349.72
2023-02-06T06:34:07.822Z,93360.84
2023-02-06T06:36:35.617Z,93370.44
2023-02-06T06:39:03.772Z,93341.38
2023-02-06T06:41:31.657Z,93276.09
2023-02-06T06:43:59.859Z,93264.88
2023-02-06T06:46:29.268Z,93284.81
2023-02-06T06:48:57.193Z,93284.81
2023-02-06T06:51:26.765Z,93315.16
2023-02-06T06:53:54.528Z,93306.94
2023-02-06T06:56:22.598Z,93233.88
2023-02-06T06:58:51.242Z,93208.00
2023-02-06T07:01:19.994Z,93240.47
2023-02-06T07:03:49.271Z,93264.53
2023-02-06T07:06:17.759Z,93267.91
2023-02-06T07:08:48.545Z,93223.94
2023-02-06T07:11:16.990Z,93204.78
2023-02-06T07:13:47.696Z,93247.03
2023-02-06T07:16:15.657Z,93262.66
2023-02-06T07:18:43.709Z,93227.13
2023-02-06T07:21:14.211Z,93293.78
2023-02-06T07:23:42.188Z,93307.13
2023-02-06T07:26:10.103Z,93289.94
2023-02-06T07:28:38.511Z,93246.59
2023-02-06T07:31:08.405Z,93217.97
2023-02-06T07:33:36.940Z,93178.94
2023-02-06T07:36:05.040Z,93145.72
2023-02-06T07:38:34.165Z,93118.75
2023-02-06T07:41:06.153Z,93159.22
2023-02-06T07:43:34.509Z,93178.16
2023-02-06T07:46:03.516Z,93219.94
2023-02-06T07:48:32.227Z,93223.13
2023-02-06T07:51:05.800Z,93258.75
2023-02-06T07:53:36.103Z,93313.53
2023-02-06T07:56:10.964Z,93413.06
2023-02-06T07:58:38.898Z,93451.34
2023-02-06T08:01:07.170Z,93488.34
2023-02-06T08:03:35.403Z,93475.44
2023-02-06T08:06:09.087Z,93480.44
2023-02-06T08:08:38.627Z,93479.00
2023-02-06T08:11:07.877Z,93493.78
2023-02-06T08:13:36.707Z,93529.84
2023-02-06T08:16:06.888Z,93533.88
2023-02-06T08:18:35.118Z,93545.44
2023-02-06T08:21:04.117Z,93575.53
2023-02-06T08:23:32.426Z,93619.97
2023-02-06T08:26:06.446Z,93688.25
2023-02-06T08:28:35.153Z,93748.53
2023-02-06T08:31:09.312Z,93816.03
2023-02-06T08:33:37.148Z,93884.75
2023-02-06T08:36:05.894Z,93932.31
2023-02-06T08:38:33.966Z,94014.47
2023-02-06T08:41:02.104Z,94088.88
2023-02-06T08:43:33.098Z,94183.53
2023-02-06T08:46:01.506Z,94260.44
2023-02-06T08:48:29.463Z,94351.00
2023-02-06T08:51:04.862Z,94440.00
2023-02-06T08:53:33.153Z,94527.44
2023-02-06T08:56:02.238Z,94638.22
2023-02-06T08:58:32.232Z,94730.13
2023-02-06T09:01:00.619Z,94822.44
2023-02-06T09:03:28.547Z,94903.06
2023-02-06T09:06:09.432Z,95010.22
2023-02-06T09:08:38.660Z,95087.72
2023-02-06T09:11:07.893Z,95185.25
2023-02-06T09:13:37.546Z,95293.41
2023-02-06T09:16:07.088Z,95372.69
2023-02-06T09:18:35.361Z,95541.72
2023-02-06T09:21:10.186Z,95680.59
2023-02-06T09:23:39.064Z,95764.16
2023-02-06T09:26:07.278Z,95816.06
2023-02-06T09:28:36.915Z,95881.19
2023-02-06T09:31:05.286Z,95892.13
2023-02-06T09:33:33.516Z,95934.59
2023-02-06T09:36:06.861Z,95977.72
2023-02-06T09:38:35.100Z,96071.84
2023-02-06T09:41:07.377Z,96149.34
2023-02-06T09:43:37.293Z,96234.75
2023-02-06T09:46:10.311Z,96372.31
2023-02-06T09:48:40.645Z,96460.72
2023-02-06T09:51:17.726Z,96607.00
2023-02-06T09:53:56.405Z,96761.22
2023-02-06T09:56:37.582Z,96850.56
2023-02-06T09:59:16.182Z,97037.41
2023-02-06T10:01:50.695Z,97226.09
2023-02-06T10:04:41.655Z,97524.63
2023-02-06T10:07:27.296Z,97811.47
2023-02-06T10:10:02.249Z,98037.91
2023-02-06T10:12:37.535Z,98244.13
2023-02-06T10:15:14.057Z,98538.47
2023-02-06T10:17:50.254Z,98558.25
2023-02-06T10:20:23.641Z,98409.44
2023-02-06T10:23:00.115Z,98583.53
2023-02-06T10:25:32.229Z,98725.50
2023-02-06T10:28:04.002Z,98855.03
2023-02-06T10:30:52.849Z,99002.53
2023-02-06T10:33:27.343Z,98975.16
2023-02-06T10:36:04.402Z,99164.22
2023-02-06T10:38:57.540Z,99506.94
2023-02-06T10:41:35.519Z,99573.69
2023-02-06T10:44:12.312Z,99722.75
2023-02-06T10:46:48.350Z,99999.63
2023-02-06T10:49:23.200Z,99950.28
2023-02-06T10:51:54.317Z,100244.41
2023-02-06T10:54:27.250Z,100374.72
2023-02-06T10:56:57.967Z,100542.03
2023-02-06T10:59:30.160Z,100543.72
2023-02-06T11:02:14.726Z,100509.06
2023-02-06T11:04:47.609Z,100151.31
2023-02-06T11:07:25.132Z,100284.41
2023-02-06T11:09:53.438Z,100258.31
2023-02-06T11:12:29.723Z,100269.56
2023-02-06T11:15:01.768Z,100238.34
2023-02-06T11:17:32.159Z,100304.50
2023-02-06T11:20:05.344Z,100538.63
2023-02-06T11:22:38.844Z,100339.34
2023-02-06T11:25:30.404Z,100291.44
2023-02-06T11:27:59.612Z,100143.47
2023-02-06T11:30:34.902Z,100118.22
2023-02-06T11:33:07.179Z,100451.69
2023-02-06T11:35:40.122Z,100332.44
2023-02-06T11:38:15.926Z,100361.16
2023-02-06T11:40:44.603Z,100426.38
2023-02-06T11:43:21.979Z,100499.50
2023-02-06T11:45:53.902Z,100375.91
2023-02-06T11:48:38.865Z,100214.06
2023-02-06T11:51:09.130Z,100721.81
2023-02-06T11:53:38.065Z,100670.44
2023-02-06T11:56:17.210Z,100727.97
2023-02-06T11:58:45.858Z,100025.56
2023-02-06T12:01:20.976Z,99689.56
2023-02-06T12:03:59.892Z,100128.00
2023-02-06T12:06:32.977Z,100091.53
2023-02-06T12:09:02.888Z,99732.16
2023-02-06T12:11:35.755Z,100010.50
2023-02-06T12:14:07.622Z,99885.66
2023-02-06T12:16:40.235Z,99848.28
2023-02-06T12:19:17.701Z,99636.69
2023-02-06T12:21:49.655Z,99549.56
2023-02-06T12:24:35.245Z,99440.81
2023-02-06T12:27:11.667Z,99159.78
2023-02-06T12:29:44.545Z,98790.31
2023-02-06T12:32:16.253Z,98520.56
2023-02-06T12:34:53.961Z,98472.47
2023-02-06T12:37:26.892Z,98387.97
2023-02-06T12:39:54.758Z,98425.44
2023-02-06T12:42:37.958Z,98445.66
2023-02-06T12:45:16.034Z,98369.78
2023-02-06T12:47:49.512Z,98241.03
2023-02-06T12:50:24.474Z,98081.97
2023-02-06T12:52:56.805Z,98020.41
2023-02-06T12:55:31.290Z,98111.97
2023-02-06T12:57:59.971Z,98086.97
2023-02-06T13:00:55.168Z,98057.03
2023-02-06T13:03:32.435Z,97815.88
2023-02-06T13:06:14.520Z,97704.56
2023-02-06T13:08:47.376Z,97745.81
2023-02-06T13:11:27.673Z,97671.91
2023-02-06T13:14:20.737Z,97635.13
2023-02-06T13:17:06.738Z,97583.09
2023-02-06T13:19:54.354Z,97704.28
2023-02-06T13:22:37.969Z,97729.19
2023-02-06T13:25:51.768Z,97681.31
2023-02-06T13:28:47.463Z,97603.44
2023-02-06T13:31:27.669Z,97603.44
2023-02-06T13:34:01.443Z,97558.78
2023-02-06T13:36:44.966Z,97491.28
2023-02-06T13:39:26.249Z,97423.59
2023-02-06T13:41:54.735Z,97332.00
2023-02-06T13:44:27.899Z,97268.06
2023-02-06T13:47:29.825Z,97136.41
2023-02-06T13:50:26.088Z,97070.09
2023-02-06T13:53:07.040Z,97086.25
2023-02-06T13:55:47.354Z,97097.28
2023-02-06T13:58:39.862Z,97035.75
2023-02-06T14:01:14.719Z,96991.38
2023-02-06T14:03:47.580Z,96982.03
2023-02-06T14:06:41.507Z,96976.78
2023-02-06T14:09:40.059Z,96931.56
2023-02-06T14:12:34.157Z,96886.41
2023-02-06T14:15:15.380Z,96867.81
2023-02-06T14:17:58.027Z,96832.97
2023-02-06T14:20:35.249Z,96790.28
2023-02-06T14:23:15.358Z,96730.56
2023-02-06T14:25:57.283Z,96676.22
2023-02-06T14:28:37.293Z,96646.09
2023-02-06T14:31:19.892Z,96606.19
2023-02-06T14:33:57.990Z,96554.38
2023-02-06T14:36:40.302Z,96461.63
2023-02-06T14:39:44.354Z,96448.19
2023-02-06T14:42:21.016Z,96414.94
2023-02-06T14:44:57.208Z,96373.16
2023-02-06T14:47:28.866Z,96352.84
2023-02-06T14:49:59.112Z,96284.22
2023-02-06T14:52:30.482Z,96252.66
2023-02-06T14:54:58.488Z,96171.22
2023-02-06T14:57:27.988Z,96121.81
2023-02-06T14:59:59.151Z,96099.91
2023-02-06T15:02:31.168Z,96076.88
2023-02-06T15:05:00.015Z,96057.69
2023-02-06T15:07:31.776Z,96016.03
2023-02-06T15:10:03.803Z,95982.06
2023-02-06T15:12:32.142Z,95933.84
2023-02-06T15:15:05.400Z,95918.50
2023-02-06T15:17:34.475Z,95900.56
2023-02-06T15:20:26.361Z,95847.34
2023-02-06T15:23:04.913Z,95743.38
2023-02-06T15:26:04.775Z,95612.88
2023-02-06T15:28:37.956Z,95546.56
2023-02-06T15:31:17.974Z,95448.16
2023-02-06T15:33:49.471Z,95397.38
2023-02-06T15:36:23.280Z,95318.94
2023-02-06T15:38:52.593Z,95233.84
2023-02-06T15:41:20.825Z,95179.03
2023-02-06T15:43:49.524Z,95101.34
2023-02-06T15:46:18.821Z,95052.59
2023-02-06T15:48:52.895Z,95006.16
2023-02-06T15:51:23.699Z,95006.78
2023-02-06T15:53:53.432Z,94979.84
2023-02-06T15:56:25.835Z,94953.84
2023-02-06T15:59:00.111Z,94952.06
2023-02-06T16:01:34.957Z,94895.09
2023-02-06T16:04:08.837Z,94844.44
2023-02-06T16:06:37.576Z,94832.78
2023-02-06T16:09:08.540Z,94803.41
2023-02-06T16:11:47.489Z,94782.19
2023-02-06T16:14:22.823Z,94878.06
2023-02-06T16:17:00.229Z,94909.88
2023-02-06T16:19:41.124Z,94883.91
2023-02-06T16:22:18.279Z,94911.66
2023-02-06T16:24:46.094Z,94876.28
2023-02-06T16:27:20.509Z,94958.06
2023-02-06T16:29:52.949Z,94960.38
2023-02-06T16:32:26.141Z,94958.06
2023-02-06T16:34:54.565Z,94985.69
2023-02-06T16:37:26.827Z,95075.03
2023-02-06T16:39:55.157Z,95112.88
2023-02-06T16:42:24.805Z,95104.75
2023-02-06T16:44:59.370Z,95069.84
2023-02-06T16:47:28.501Z,95083.47
2023-02-06T16:49:56.345Z,95049.66
2023-02-06T16:52:26.647Z,95064.81
2023-02-06T16:54:57.842Z,95032.78
2023-02-06T16:57:29.960Z,94965.56
2023-02-06T16:59:59.080Z,94971.41
2023-02-06T17:02:58.544Z,94941.84
2023-02-06T17:05:29.157Z,94888.78
2023-02-06T17:07:57.192Z,94851.78
2023-02-06T17:10:27.127Z,94771.81
2023-02-06T17:12:55.296Z,94846.75
2023-02-06T17:15:23.339Z,94905.47
2023-02-06T17:17:53.718Z,94982.94
2023-02-06T17:20:30.988Z,95017.50
2023-02-06T17:22:59.174Z,95017.50
2023-02-06T17:25:27.068Z,95004.84
2023-02-06T17:27:56.872Z,95022.38
2023-02-06T17:30:26.479Z,95110.44
2023-02-06T17:32:54.591Z,95119.38
2023-02-06T17:35:22.746Z,95063.84
2023-02-06T17:37:52.386Z,94998.19
2023-02-06T17:40:22.334Z,94997.38
2023-02-06T17:42:50.318Z,95000.63
2023-02-06T17:45:18.345Z,95062.34
2023-02-06T17:47:46.479Z,95106.88
2023-02-06T17:50:17.598Z,95137.09
2023-02-06T17:52:45.622Z,95128.66
2023-02-06T17:55:15.494Z,95175.97
2023-02-06T17:57:43.455Z,95177.59
2023-02-06T18:00:15.159Z,95154.00
2023-02-06T18:02:43.250Z,95137.09
2023-02-06T18:05:12.126Z,95078.28
2023-02-06T18:07:40.618Z,95085.75
2023-02-06T18:10:10.206Z,95090.63
2023-02-06T18:12:40.102Z,95109.00
2023-02-06T18:15:09.088Z,95113.69
2023-02-06T18:17:37.184Z,95156.59
2023-02-06T18:20:05.695Z,95182.47
2023-02-06T18:22:40.098Z,95261.00
2023-02-06T18:25:14.507Z,95289.81
2023-02-06T18:27:45.752Z,95268.53
2023-02-06T18:30:17.296Z,95215.31
2023-02-06T18:32:46.100Z,95175.81
2023-02-06T18:35:16.316Z,95137.09
2023-02-06T18:37:44.439Z,95090.97
2023-02-06T18:40:13.280Z,95047.88
2023-02-06T18:42:53.529Z,94975.31
2023-02-06T18:45:24.618Z,94911.50
2023-02-06T18:47:52.709Z,94864.28
2023-02-06T18:50:22.169Z,94824.00
2023-02-06T18:52:50.992Z,94755.91
2023-02-06T18:55:19.264Z,94696.25
2023-02-06T18:57:47.586Z,94651.84
2023-02-06T19:00:16.710Z,94629.00
2023-02-06T19:02:46.262Z,94635.66
2023-02-06T19:05:14.822Z,94605.47
2023-02-06T19:07:42.982Z,94574.38
2023-02-06T19:10:13.165Z,94533.25
2023-02-06T19:12:41.218Z,94499.41
2023-02-06T19:15:10.515Z,94470.91
2023-02-06T19:17:38.953Z,94441.47
2023-02-06T19:20:10.179Z,94441.63
2023-02-06T19:22:39.602Z,94397.91
2023-02-06T19:25:14.455Z,94386.91
2023-02-06T19:27:42.993Z,94361.03
2023-02-06T19:30:13.066Z,94337.13
2023-02-06T19:32:41.450Z,94357.47
2023-02-06T19:35:12.004Z,94348.44
2023-02-06T19:37:41.855Z,94335.00
2023-02-06T19:40:10.750Z,94338.41
2023-02-06T19:42:39.874Z,94285.34
2023-02-06T19:45:08.133Z,94259.50
2023-02-06T19:47:36.625Z,94258.84
2023-02-06T19:50:04.485Z,94231.69
2023-02-06T19:52:35.313Z,94209.41
2023-02-06T19:55:03.567Z,94209.41
2023-02-06T19:57:31.726Z,94195.03
2023-02-06T19:59:59.661Z,94170.13
2023-02-06T20:02:27.847Z,94154.13
2023-02-06T20:04:55.782Z,94158.97
2023-02-06T20:07:23.828Z,94189.19
2023-02-06T20:09:55.556Z,94239.28
2023-02-06T20:12:23.609Z,94270.16
2023-02-06T20:14:51.814Z,94269.50
2023-02-06T20:17:19.605Z,94271.13
2023-02-06T20:19:48.617Z,94261.09
2023-02-06T20:22:16.821Z,94263.53
2023-02-06T20:24:44.796Z,94330.00
2023-02-06T20:27:15.171Z,94352.63
2023-02-06T20:29:43.470Z,94350.84
2023-02-06T20:32:12.176Z,94442.28
2023-02-06T20:34:40.161Z,94527.44
2023-02-06T20:37:08.131Z,94595.13
2023-02-06T20:39:36.144Z,94685.88
2023-02-06T20:42:04.157Z,94777.31
2023-02-06T20:44:33.554Z,94810.41
2023-02-06T20:47:01.589Z,94795.16
2023-02-06T20:49:31.210Z,94769.22
2023-02-06T20:51:59.595Z,94743.91
2023-02-06T20:54:27.314Z,94714.38
2023-02-06T20:56:55.239Z,94704.34
2023-02-06T20:59:23.627Z,94732.25
2023-02-06T21:01:52.870Z,94783.16
2023-02-06T21:04:21.713Z,94914.56
2023-02-06T21:06:50.133Z,94956.47
2023-02-06T21:09:19.397Z,95041.56
2023-02-06T21:11:50.334Z,95089.97
2023-02-06T21:14:19.571Z,95125.09
2023-02-06T21:16:48.286Z,95076.34
2023-02-06T21:19:20.739Z,95100.72
2023-02-06T21:21:49.206Z,95132.88
2023-02-06T21:24:18.670Z,95140.34
2023-02-06T21:26:46.840Z,95123.47
2023-02-06T21:29:15.875Z,95075.38
2023-02-06T21:31:44.792Z,95034.09
2023-02-06T21:34:15.093Z,95118.41
2023-02-06T21:36:44.638Z,95113.38
2023-02-06T21:39:16.493Z,95135.16
2023-02-06T21:41:45.138Z,95099.75
2023-02-06T21:44:13.265Z,95162.97
2023-02-06T21:46:41.527Z,95248.97
2023-02-06T21:49:13.982Z,95293.56
2023-02-06T21:51:42.064Z,95333.44
2023-02-06T21:54:13.937Z,95373.00
2023-02-06T21:56:41.961Z,95403.59
2023-02-06T21:59:12.686Z,95419.22
2023-02-06T22:01:41.360Z,95511.41
2023-02-06T22:04:11.260Z,95568.28
2023-02-06T22:06:40.287Z,95619.78
2023-02-06T22:09:15.882Z,95624.84
2023-02-06T22:11:44.895Z,95614.75
2023-02-06T22:14:15.977Z,95641.13
2023-02-06T22:16:46.597Z,95636.75
2023-02-06T22:19:15.228Z,95703.63
2023-02-06T22:21:43.500Z,95708.00
2023-02-06T22:24:13.681Z,95750.09
2023-02-06T22:26:42.829Z,95734.13
2023-02-06T22:29:13.554Z,95773.91
2023-02-06T22:31:43.450Z,95779.63
2023-02-06T22:34:16.378Z,95801.66
2023-02-06T22:36:45.550Z,95786.47
2023-02-06T22:39:15.902Z,95820.44
2023-02-06T22:41:46.150Z,95791.84
2023-02-06T22:44:16.469Z,95793.47
2023-02-06T22:46:46.315Z,95793.31
2023-02-06T22:49:14.873Z,95787.47
2023-02-06T22:51:43.439Z,95829.75
2023-02-06T22:54:11.737Z,95838.38
2023-02-06T22:56:42.492Z,95833.03
2023-02-06T22:59:13.173Z,95828.13
2023-02-06T23:01:47.477Z,95839.22
2023-02-06T23:04:18.145Z,95823.88
2023-02-06T23:06:46.568Z,95820.44
2023-02-06T23:09:17.691Z,95834.16
2023-02-06T23:11:48.450Z,95863.69
2023-02-06T23:14:17.938Z,95872.19
2023-02-06T23:16:47.079Z,95908.44
2023-02-06T23:19:16.126Z,95893.41
2023-02-06T23:21:46.208Z,95901.72
2023-02-06T23:24:15.128Z,95889.00
2023-02-06T23:26:44.902Z,95923.94
2023-02-06T23:29:17.335Z,95946.97
2023-02-06T23:31:46.417Z,95945.03
2023-02-06T23:34:15.219Z,95970.50
2023-02-06T23:36:44.245Z,95949.28
2023-02-06T23:39:12.480Z,95971.84
2023-02-06T23:41:41.072Z,95962.84
2023-02-06T23:44:11.817Z,95997.47
2023-02-06T23:46:42.270Z,96009.38
2023-02-06T23:49:11.346Z,96000.06
2023-02-06T23:51:39.681Z,96012.00
2023-02-06T23:54:09.081Z,96013.63
2023-02-06T23:56:37.093Z,96038.19
2023-02-06T23:59:06.284Z,96026.38
